Hockessin, Delaware
Current Conditions -  °F | °C
As of 8:51 AM on Sunday 23 Nov 2014 (Local Time) from KILG Reporting Station
Clear Clear  
Wind Chill: 41°   Ceiling: Unl
Heat Index: 44°   Visibility: 10mi
Dew Point: 24°   Wind: 6mph
Humidity: 45%   Direction: 210°SSW
Pressure: 30.25"   Gusts: NA
Location:  39.79°N, 75.69°W
Report Text: KILG 231351Z AUTO 21005KT 10SM CLR 07/M04 A3025 RMK AO2 SLP242 T00671044
Loading
Personal Weather Stations






























Interactive Weather Map New forecast layout! Learn more

10-Day Weather Forecast

Advertisements
Track Severe Weather on mobile